Time;durP1;ratioP1;P1;durP2;ratioP2;P2;SDS_P1;SDS_P2;PMS_P1;PMS_P2;Temp;Humidity;BMP_temperature;BMP_pressure;BME280_temperature;BME280_humidity;BME280_pressure;Samples;Min_cycle;Max_cycle;Signal;HPM_P1;HPM_P2
2023/02/04 00:01:15;;;;;;;15.25;8.75;;;;;;;-1.60;97.24;99664.14;1824371;77;25574;-43
2023/02/04 00:03:43;;;;;;;13.03;8.68;;;;;;;-1.59;97.16;99671.06;1824403;78;25542;-43
2023/02/04 00:06:10;;;;;;;12.75;7.97;;;;;;;-1.60;97.24;99674.75;1824469;78;25372;-43
2023/02/04 00:08:37;;;;;;;16.90;8.78;;;;;;;-1.61;97.28;99677.14;1824446;78;27469;-43
2023/02/04 00:11:05;;;;;;;14.40;8.35;;;;;;;-1.61;97.33;99682.44;1824312;77;25757;-44
2023/02/04 00:13:32;;;;;;;17.20;8.85;;;;;;;-1.62;97.46;99685.59;1823916;78;25593;-44
2023/02/04 00:15:58;;;;;;;14.93;8.88;;;;;;;-1.64;97.52;99690.34;1823875;78;25605;-44
2023/02/04 00:18:24;;;;;;;15.38;9.53;;;;;;;-1.66;97.54;99694.30;1823833;78;25346;-44
2023/02/04 00:20:51;;;;;;;15.03;8.20;;;;;;;-1.68;97.40;99707.80;1823791;78;27516;-45
2023/02/04 00:23:18;;;;;;;12.90;8.03;;;;;;;-1.71;97.48;99706.42;1823763;78;25372;-45
2023/02/04 00:25:44;;;;;;;16.15;8.50;;;;;;;-1.70;97.51;99720.50;1823751;78;25672;-43
2023/02/04 00:28:10;;;;;;;15.35;9.00;;;;;;;-1.72;97.66;99724.72;1823782;78;25541;-44
2023/02/04 00:30:37;;;;;;;13.88;8.53;;;;;;;-1.73;97.71;99732.91;1823848;78;25564;-44
2023/02/04 00:33:04;;;;;;;14.68;7.80;;;;;;;-1.74;97.74;99741.40;1823801;78;29680;-44
2023/02/04 00:35:30;;;;;;;12.30;7.55;;;;;;;-1.75;97.70;99749.06;1823705;78;25553;-43
2023/02/04 00:37:57;;;;;;;14.83;8.13;;;;;;;-1.75;97.84;99758.34;1823827;78;25364;-44
2023/02/04 00:40:23;;;;;;;16.20;7.83;;;;;;;-1.75;97.99;99757.02;1803159;78;25538;-44
2023/02/04 00:42:49;;;;;;;16.82;8.73;;;;;;;-1.76;98.00;99759.38;1823836;78;25537;-43
2023/02/04 00:45:16;;;;;;;12.15;7.72;;;;;;;-1.75;97.93;99764.17;1823766;78;27461;-44
2023/02/04 00:47:43;;;;;;;13.93;7.87;;;;;;;-1.77;97.93;99772.87;1830481;78;25814;-44
2023/02/04 00:50:10;;;;;;;12.65;7.78;;;;;;;-1.77;97.99;99768.39;1823805;78;25596;-44
2023/02/04 00:52:36;;;;;;;14.85;8.73;;;;;;;-1.77;98.05;99779.00;1823747;78;25524;-44
2023/02/04 00:55:06;;;;;;;12.43;7.67;;;;;;;-1.77;98.01;99785.63;1823791;78;25361;-43
2023/02/04 00:57:34;;;;;;;12.98;7.90;;;;;;;-1.77;98.01;99808.66;1823835;78;27548;-44
2023/02/04 01:00:01;;;;;;;12.65;6.80;;;;;;;-1.78;98.06;99816.36;1823723;78;25607;-44
2023/02/04 01:02:27;;;;;;;14.40;8.10;;;;;;;-1.79;98.12;99818.18;1823682;78;25408;-45
2023/02/04 01:04:53;;;;;;;12.95;7.53;;;;;;;-1.81;98.10;99824.78;1823761;78;25605;-45
2023/02/04 01:07:19;;;;;;;15.20;8.05;;;;;;;-1.81;98.15;99828.23;1823821;78;25448;-45
2023/02/04 01:09:45;;;;;;;14.85;7.62;;;;;;;-1.83;98.17;99837.48;1823751;78;27463;-44
2023/02/04 01:12:12;;;;;;;14.43;8.03;;;;;;;-1.84;98.12;99835.86;1823666;78;25451;-44
2023/02/04 01:14:38;;;;;;;12.70;7.90;;;;;;;-1.83;98.22;99848.08;1823798;78;25442;-43
2023/02/04 01:17:05;;;;;;;13.72;7.53;;;;;;;-1.84;98.34;99855.21;1803165;78;25459;-45
2023/02/04 01:19:32;;;;;;;13.88;8.10;;;;;;;-1.81;98.37;99867.20;1823832;78;25572;-44
2023/02/04 01:21:59;;;;;;;15.80;8.35;;;;;;;-1.82;98.37;99870.88;1823713;78;27846;-45
2023/02/04 01:24:25;;;;;;;13.32;7.75;;;;;;;-1.83;98.42;99873.27;1823641;77;25580;-44
2023/02/04 01:26:51;;;;;;;14.15;7.55;;;;;;;-1.82;98.50;99891.59;1823716;78;25608;-45
2023/02/04 01:29:18;;;;;;;17.60;8.35;;;;;;;-1.84;98.39;99891.00;1823688;78;25338;-44
2023/02/04 01:31:45;;;;;;;13.05;7.47;;;;;;;-1.83;98.40;99907.73;1823728;78;25475;-45
2023/02/04 01:34:11;;;;;;;14.00;7.67;;;;;;;-1.83;98.36;99903.23;1823713;78;29561;-44
2023/02/04 01:36:37;;;;;;;14.75;8.10;;;;;;;-1.82;98.35;99917.28;1823649;78;25364;-45
2023/02/04 01:39:04;;;;;;;13.22;7.53;;;;;;;-1.83;98.30;99923.12;1823760;78;25436;-46
2023/02/04 01:41:30;;;;;;;13.28;8.23;;;;;;;-1.82;98.32;99921.27;1823627;78;25561;-46
2023/02/04 01:43:59;;;;;;;14.03;8.00;;;;;;;-1.82;98.30;99929.22;1823749;78;25349;-44
2023/02/04 01:46:26;;;;;;;13.13;7.53;;;;;;;-1.82;98.29;99936.67;1823695;78;27177;-45
2023/02/04 01:48:53;;;;;;;12.65;7.42;;;;;;;-1.82;98.23;99951.25;1823638;77;25411;-44
2023/02/04 01:51:26;;;;;;;13.53;7.37;;;;;;;-1.81;98.26;99960.01;1823739;78;25480;-43
2023/02/04 01:53:55;;;;;;;9.83;6.08;;;;;;;-1.81;98.33;99967.43;1823767;78;25789;-43
2023/02/04 01:56:25;;;;;;;13.50;7.85;;;;;;;-1.79;98.37;99977.80;1823768;78;25424;-43
2023/02/04 01:58:56;;;;;;;12.33;7.10;;;;;;;-1.80;98.32;99975.69;1803275;78;27951;-44
2023/02/04 02:01:45;;;;;;;13.43;7.08;;;;;;;-1.79;98.35;99993.72;1823559;78;25770;-44
2023/02/04 02:04:17;;;;;;;15.25;8.45;;;;;;;-1.79;98.35;100000.34;1823756;77;25588;-43
2023/02/04 02:06:51;;;;;;;15.40;7.35;;;;;;;-1.79;98.39;99994.52;1823730;78;25735;-43
2023/02/04 02:09:18;;;;;;;12.73;7.30;;;;;;;-1.79;98.38;100013.60;1823854;78;25375;-44
2023/02/04 02:11:45;;;;;;;13.32;7.20;;;;;;;-1.82;98.32;100018.04;1823709;78;28052;-44
2023/02/04 02:14:13;;;;;;;13.55;6.87;;;;;;;-1.83;98.33;100029.17;1823622;78;25806;-45
2023/02/04 02:16:40;;;;;;;11.95;6.55;;;;;;;-1.82;98.31;100033.95;1823704;78;25612;-43
2023/02/04 02:19:11;;;;;;;14.13;6.92;;;;;;;-1.83;98.34;100033.69;1823656;78;25470;-44
2023/02/04 02:21:49;;;;;;;13.13;6.40;;;;;;;-1.82;98.38;100045.38;1823735;78;25371;-47
2023/02/04 02:24:29;;;;;;;13.85;6.28;;;;;;;-1.82;98.34;100055.16;1822424;78;27496;-44
2023/02/04 02:27:00;;;;;;;9.83;6.12;;;;;;;-1.82;98.33;100075.88;1823645;78;25765;-42
2023/02/04 02:29:28;;;;;;;11.15;5.62;;;;;;;-1.81;98.34;100089.41;1823686;77;25470;-43
2023/02/04 02:31:56;;;;;;;9.25;5.55;;;;;;;-1.83;98.26;100099.44;1823661;78;25587;-42
2023/02/04 02:34:25;;;;;;;9.60;6.12;;;;;;;-1.83;98.24;100107.92;1823721;78;25514;-43
2023/02/04 02:36:52;;;;;;;10.28;6.40;;;;;;;-1.82;98.18;100118.80;1823828;78;27477;-44
2023/02/04 02:39:20;;;;;;;10.75;6.17;;;;;;;-1.79;98.02;100128.95;1823584;78;25765;-46
2023/02/04 02:41:47;;;;;;;11.48;6.00;;;;;;;-1.84;98.08;100138.12;1823665;78;25537;-44
2023/02/04 02:44:15;;;;;;;9.83;5.80;;;;;;;-1.85;98.11;100138.64;1823669;78;25842;-43
2023/02/04 02:46:42;;;;;;;11.83;6.20;;;;;;;-1.85;98.02;100147.92;1823819;78;25608;-42
2023/02/04 02:49:16;;;;;;;10.10;6.15;;;;;;;-1.86;97.93;100154.78;1823695;78;27520;-43
2023/02/04 02:51:44;;;;;;;7.70;5.05;;;;;;;-1.85;97.90;100166.48;1823652;78;25653;-42
2023/02/04 02:54:27;;;;;;;10.75;5.42;;;;;;;-1.86;97.83;100175.98;1823679;78;25390;-42
2023/02/04 02:56:55;;;;;;;9.10;5.55;;;;;;;-1.87;97.71;100193.75;1823704;78;25577;-43
2023/02/04 02:59:23;;;;;;;13.30;6.53;;;;;;;-1.88;97.66;100202.20;1803081;78;25384;-43
2023/02/04 03:01:56;;;;;;;9.08;5.42;;;;;;;-1.89;97.64;100216.52;1825161;77;28163;-42
2023/02/04 03:04:26;;;;;;;10.43;5.67;;;;;;;-1.87;97.73;100224.24;1829712;78;25359;-42
2023/02/04 03:06:55;;;;;;;10.72;6.20;;;;;;;-1.86;97.74;100227.16;1829873;78;25495;-42
2023/02/04 03:09:24;;;;;;;8.25;5.33;;;;;;;-1.85;97.81;100242.05;1829894;77;25598;-43
2023/02/04 03:11:51;;;;;;;9.53;5.10;;;;;;;-1.85;97.80;100246.03;1829935;77;25526;-42
2023/02/04 03:14:21;;;;;;;10.95;5.53;;;;;;;-1.84;97.85;100250.28;1829767;77;28011;-42
2023/02/04 03:16:48;;;;;;;11.95;6.37;;;;;;;-1.83;97.83;100265.69;1829794;78;25735;-42
2023/02/04 03:19:15;;;;;;;8.10;5.22;;;;;;;-1.83;97.83;100268.34;1829745;77;25434;-42
2023/02/04 03:21:42;;;;;;;9.28;5.35;;;;;;;-1.81;97.89;100274.22;1829690;77;26357;-43
2023/02/04 03:24:09;;;;;;;11.85;5.30;;;;;;;-1.81;97.92;100271.05;1829782;77;25574;-42
2023/02/04 03:26:36;;;;;;;7.67;4.45;;;;;;;-1.79;97.88;100280.09;1829842;78;27594;-42
2023/02/04 03:29:04;;;;;;;12.03;5.53;;;;;;;-1.79;97.86;100289.38;1829756;77;25547;-42
2023/02/04 03:31:30;;;;;;;9.85;4.97;;;;;;;-1.78;97.87;100301.62;1829708;77;25316;-42
2023/02/04 03:33:56;;;;;;;8.15;4.95;;;;;;;-1.78;97.87;100304.27;1829677;77;25592;-43
2023/02/04 03:36:23;;;;;;;10.88;5.00;;;;;;;-1.78;97.88;100311.70;1829759;78;25549;-42
2023/02/04 03:38:51;;;;;;;8.98;4.95;;;;;;;-1.78;97.82;100315.67;1829731;78;27494;-43
2023/02/04 03:41:18;;;;;;;8.28;4.67;;;;;;;-1.78;97.77;100332.11;1829610;77;25337;-42
2023/02/04 03:43:44;;;;;;;7.75;5.08;;;;;;;-1.77;97.68;100343.83;1829700;77;25576;-41
2023/02/04 03:46:11;;;;;;;7.62;4.65;;;;;;;-1.77;97.63;100357.58;1829662;78;25488;-42
2023/02/04 03:48:37;;;;;;;9.20;5.12;;;;;;;-1.79;97.44;100367.61;1829842;78;25356;-43
2023/02/04 03:51:04;;;;;;;7.47;4.30;;;;;;;-1.82;97.30;100368.05;1829876;77;29703;-42
2023/02/04 03:53:31;;;;;;;9.48;5.00;;;;;;;-1.83;97.23;100374.41;1829820;77;25691;-42
2023/02/04 03:55:57;;;;;;;8.50;4.53;;;;;;;-1.85;96.95;100377.81;1829868;77;25357;-42
2023/02/04 03:58:24;;;;;;;7.92;4.08;;;;;;;-1.89;96.72;100385.38;1829865;78;25589;-42
2023/02/04 04:00:50;;;;;;;8.73;4.95;;;;;;;-1.92;96.55;100394.60;1829920;78;25432;-46
2023/02/04 04:03:17;;;;;;;8.20;5.15;;;;;;;-1.96;96.37;100392.61;1809992;78;27259;-42
2023/02/04 04:05:43;;;;;;;8.63;4.50;;;;;;;-1.99;96.25;100403.66;1826899;78;25432;-43
2023/02/04 04:08:09;;;;;;;6.93;3.83;;;;;;;-2.03;96.07;100422.38;1827000;78;25625;-45
2023/02/04 04:10:36;;;;;;;7.03;4.17;;;;;;;-2.10;95.88;100428.55;1826945;78;25541;-44
2023/02/04 04:13:02;;;;;;;7.95;4.45;;;;;;;-2.15;95.68;100440.33;1827076;78;25435;-42
2023/02/04 04:15:29;;;;;;;7.78;4.67;;;;;;;-2.20;95.64;100455.28;1826960;78;26635;-43
2023/02/04 04:17:56;;;;;;;8.48;4.15;;;;;;;-2.24;95.64;100464.72;1826883;78;25440;-43
2023/02/04 04:20:26;;;;;;;9.40;4.55;;;;;;;-2.29;95.54;100460.07;1826973;78;25589;-42
2023/02/04 04:22:53;;;;;;;7.17;4.55;;;;;;;-2.34;95.44;100467.87;1826906;78;25633;-43
2023/02/04 04:25:19;;;;;;;8.78;5.20;;;;;;;-2.39;95.41;100481.77;1826986;78;25512;-42
2023/02/04 04:27:46;;;;;;;13.03;6.72;;;;;;;-2.43;95.42;100484.56;1826967;78;28142;-42
2023/02/04 04:30:13;;;;;;;13.18;6.50;;;;;;;-2.48;95.41;100500.30;1826879;78;25665;-43
2023/02/04 04:32:39;;;;;;;10.18;6.10;;;;;;;-2.54;95.38;100504.61;1826987;78;25397;-42
2023/02/04 04:35:07;;;;;;;12.50;6.83;;;;;;;-2.58;95.38;100511.37;1826949;78;25510;-42
2023/02/04 04:37:34;;;;;;;13.62;7.53;;;;;;;-2.61;95.47;100515.77;1826990;78;25415;-45
2023/02/04 04:40:01;;;;;;;11.97;6.42;;;;;;;-2.62;95.84;100524.77;1826939;78;27536;-44
2023/02/04 04:42:27;;;;;;;13.35;6.17;;;;;;;-2.64;96.17;100522.33;1826849;78;25431;-44
2023/02/04 04:44:54;;;;;;;11.40;5.62;;;;;;;-2.60;96.49;100540.45;1826964;78;25568;-43
2023/02/04 04:47:20;;;;;;;11.35;6.20;;;;;;;-2.58;96.74;100548.98;1826871;78;25559;-43
2023/02/04 04:49:46;;;;;;;10.25;5.97;;;;;;;-2.57;96.82;100556.72;1826956;78;25385;-43
2023/02/04 04:52:12;;;;;;;9.55;5.67;;;;;;;-2.55;96.97;100553.33;1826957;78;27456;-42
2023/02/04 04:54:38;;;;;;;11.70;6.00;;;;;;;-2.51;97.13;100567.75;1826861;78;25760;-42
2023/02/04 04:57:04;;;;;;;9.88;5.87;;;;;;;-2.48;97.21;100575.80;1826906;78;25352;-42
2023/02/04 04:59:30;;;;;;;12.03;5.83;;;;;;;-2.45;97.26;100580.67;1826910;78;26102;-42
2023/02/04 05:01:56;;;;;;;10.38;5.87;;;;;;;-2.42;97.32;100583.39;1826853;77;25543;-42
2023/02/04 05:04:22;;;;;;;11.75;6.30;;;;;;;-2.40;97.34;100587.46;1829813;78;27456;-43
2023/02/04 05:06:48;;;;;;;10.85;5.78;;;;;;;-2.37;97.37;100601.58;1829701;78;25500;-42
2023/02/04 05:09:16;;;;;;;10.27;5.40;;;;;;;-2.35;97.40;100598.22;1829867;77;25586;-42
2023/02/04 05:11:43;;;;;;;11.57;6.75;;;;;;;-2.32;97.45;100607.04;1829891;77;25528;-42
2023/02/04 05:14:09;;;;;;;11.20;5.92;;;;;;;-2.28;97.41;100607.45;1829840;78;25524;-45
2023/02/04 05:16:35;;;;;;;10.88;6.10;;;;;;;-2.27;97.40;100620.45;1829838;77;27533;-42
2023/02/04 05:19:01;;;;;;;10.97;5.20;;;;;;;-2.24;97.38;100623.20;1813496;78;28436;-46
2023/02/04 05:21:27;;;;;;;10.60;6.03;;;;;;;-2.21;97.44;100637.35;1829801;77;25509;-42
2023/02/04 05:23:54;;;;;;;11.70;5.87;;;;;;;-2.20;97.36;100639.48;1829758;78;25738;-43
2023/02/04 05:26:20;;;;;;;12.82;6.20;;;;;;;-2.18;97.36;100648.02;1829879;77;25618;-43
2023/02/04 05:28:46;;;;;;;12.58;6.85;;;;;;;-2.15;97.38;100660.84;1829789;78;27502;-46
2023/02/04 05:31:12;;;;;;;12.23;6.35;;;;;;;-2.14;97.39;100664.61;1829710;78;25380;-43
2023/02/04 05:33:39;;;;;;;11.22;5.95;;;;;;;-2.12;97.43;100670.50;1829788;77;25580;-43
2023/02/04 05:36:06;;;;;;;9.93;6.33;;;;;;;-2.09;97.55;100674.05;1813684;78;26362;-43
2023/02/04 05:38:32;;;;;;;10.70;5.72;;;;;;;-2.07;97.56;100683.92;1829859;77;25450;-43
2023/02/04 05:40:58;;;;;;;11.97;6.17;;;;;;;-2.04;97.54;100690.65;1829823;77;28146;-42
2023/02/04 05:43:24;;;;;;;13.88;7.08;;;;;;;-2.02;97.44;100699.72;1815673;78;27337;-42
2023/02/04 05:45:51;;;;;;;10.05;5.70;;;;;;;-2.02;97.37;100701.84;1829770;77;25516;-41
2023/02/04 05:48:17;;;;;;;10.75;6.47;;;;;;;-2.00;97.29;100709.58;1829789;77;25531;-43
2023/02/04 05:50:43;;;;;;;10.28;5.20;;;;;;;-1.99;97.22;100721.30;1829808;77;25506;-42
2023/02/04 05:53:10;;;;;;;12.23;5.20;;;;;;;-1.97;97.15;100725.88;1813629;78;27361;-41
2023/02/04 05:55:36;;;;;;;8.05;4.67;;;;;;;-1.97;97.03;100731.70;1829691;77;25521;-42
2023/02/04 05:58:02;;;;;;;12.13;5.62;;;;;;;-1.98;96.91;100732.19;1829766;77;25593;-42
2023/02/04 06:00:28;;;;;;;8.88;4.78;;;;;;;-1.97;96.82;100743.62;1829733;78;25532;-44
2023/02/04 06:02:54;;;;;;;9.28;5.75;;;;;;;-1.98;96.64;100747.29;1829705;77;25645;-42
2023/02/04 06:05:22;;;;;;;8.00;4.42;;;;;;;-1.98;96.43;100760.55;1829848;77;27649;-42
2023/02/04 06:07:49;;;;;;;9.23;4.67;;;;;;;-1.99;96.25;100778.30;1829707;77;25522;-42
2023/02/04 06:10:17;;;;;;;11.60;4.60;;;;;;;-2.00;96.15;100791.77;1813531;78;25572;-42
2023/02/04 06:12:43;;;;;;;9.05;4.72;;;;;;;-2.01;96.07;100801.57;1829773;78;26058;-44
2023/02/04 06:15:10;;;;;;;8.25;4.60;;;;;;;-2.01;95.97;100808.69;1829775;77;25518;-43
2023/02/04 06:17:37;;;;;;;11.97;5.17;;;;;;;-2.01;95.85;100817.48;1829814;78;27565;-42
2023/02/04 06:20:06;;;;;;;8.05;4.72;;;;;;;-2.02;95.71;100821.66;1829660;78;25777;-43
2023/02/04 06:22:33;;;;;;;10.40;5.33;;;;;;;-2.04;95.65;100833.80;1829922;77;25449;-43
2023/02/04 06:24:59;;;;;;;8.43;5.00;;;;;;;-2.05;95.38;100842.77;1829826;77;25522;-43
2023/02/04 06:27:26;;;;;;;11.60;5.37;;;;;;;-2.08;95.28;100850.65;1829825;78;25597;-42
2023/02/04 06:29:53;;;;;;;10.40;5.65;;;;;;;-2.09;95.17;100861.46;1829770;77;27349;-42
2023/02/04 06:32:21;;;;;;;11.12;6.35;;;;;;;-2.11;95.01;100868.79;1829701;78;25531;-42
2023/02/04 06:34:48;;;;;;;13.48;5.53;;;;;;;-2.13;94.93;100873.00;1829804;78;25589;-41
2023/02/04 06:37:16;;;;;;;10.75;5.60;;;;;;;-2.14;94.83;100877.19;1829745;77;25498;-43
2023/02/04 06:39:43;;;;;;;9.43;5.08;;;;;;;-2.17;94.61;100879.73;1829787;78;25596;-42
2023/02/04 06:42:10;;;;;;;8.90;5.12;;;;;;;-2.19;94.44;100892.91;1829749;78;27465;-43
2023/02/04 06:44:36;;;;;;;9.73;4.97;;;;;;;-2.21;94.19;100893.60;1829716;77;25521;-42
2023/02/04 06:47:02;;;;;;;11.80;5.28;;;;;;;-2.28;93.92;100898.43;1829720;77;25378;-43
2023/02/04 06:49:28;;;;;;;8.90;4.97;;;;;;;-2.30;93.85;100908.44;1829758;77;25619;-42
2023/02/04 06:51:55;;;;;;;10.28;5.28;;;;;;;-2.35;93.69;100916.69;1829766;77;25595;-43
2023/02/04 06:54:21;;;;;;;10.85;4.75;;;;;;;-2.41;93.53;100919.66;1829824;77;29637;-43
2023/02/04 06:56:48;;;;;;;11.22;5.15;;;;;;;-2.45;93.30;100927.73;1829775;77;25579;-43
2023/02/04 06:59:15;;;;;;;10.95;5.58;;;;;;;-2.50;93.14;100929.67;1829729;77;25654;-47
2023/02/04 07:01:41;;;;;;;12.25;5.92;;;;;;;-2.54;93.11;100944.33;1829720;78;26099;-45
2023/02/04 07:04:07;;;;;;;8.23;3.90;;;;;;;-2.56;93.09;100944.25;1829685;77;32765;-42
2023/02/04 07:06:33;;;;;;;9.25;5.12;;;;;;;-2.58;93.01;100955.56;1829762;78;27557;-41
2023/02/04 07:09:00;;;;;;;10.25;4.90;;;;;;;-2.59;92.99;100964.52;1829691;77;25639;-43
2023/02/04 07:11:26;;;;;;;9.45;5.00;;;;;;;-2.57;92.89;100968.61;1829311;77;25620;-42
2023/02/04 07:13:52;;;;;;;10.45;4.28;;;;;;;-2.58;92.95;100970.94;1829732;78;25783;-41
2023/02/04 07:16:18;;;;;;;9.45;4.60;;;;;;;-2.56;93.07;100983.46;1829879;77;25411;-42
2023/02/04 07:18:45;;;;;;;8.18;4.53;;;;;;;-2.54;93.09;100992.02;1829836;77;27461;-42
2023/02/04 07:21:12;;;;;;;8.33;4.50;;;;;;;-2.51;93.01;101002.72;1829626;78;25919;-43
2023/02/04 07:23:38;;;;;;;9.90;4.60;;;;;;;-2.49;93.21;101001.48;1829819;78;25495;-42
2023/02/04 07:26:05;;;;;;;11.53;5.33;;;;;;;-2.45;93.13;101008.54;1829821;78;25566;-43
2023/02/04 07:28:31;;;;;;;10.90;5.50;;;;;;;-2.37;93.19;101019.42;1829991;77;25593;-42
2023/02/04 07:30:57;;;;;;;7.95;4.08;;;;;;;-2.30;93.37;101024.20;1829980;77;27573;-42
2023/02/04 07:33:24;;;;;;;7.80;4.28;;;;;;;-2.22;93.20;101029.30;1829835;77;25783;-44
2023/02/04 07:35:51;;;;;;;9.65;4.67;;;;;;;-2.13;93.61;101038.67;1829879;77;25572;-43
2023/02/04 07:38:17;;;;;;;8.80;4.08;;;;;;;-2.02;93.33;101043.84;1829943;78;25549;-42
2023/02/04 07:40:43;;;;;;;6.25;3.72;;;;;;;-1.88;93.54;101056.05;1829961;77;25573;-42
2023/02/04 07:43:09;;;;;;;7.22;3.60;;;;;;;-1.66;94.50;101054.99;1829828;77;27477;-43
2023/02/04 07:45:35;;;;;;;6.60;3.13;;;;;;;-1.53;92.86;101062.91;1829786;77;28918;-43
2023/02/04 07:48:03;;;;;;;7.53;3.45;;;;;;;-1.38;92.62;101067.94;1813513;78;25590;-44
2023/02/04 07:50:29;;;;;;;5.53;3.45;;;;;;;-1.13;93.67;101078.66;1829854;77;26372;-44
2023/02/04 07:52:56;;;;;;;5.70;3.05;;;;;;;-0.90;92.06;101078.63;1829879;77;25612;-45
2023/02/04 07:55:22;;;;;;;5.90;2.87;;;;;;;-0.67;91.64;101091.37;1829844;77;29768;-42
2023/02/04 07:57:48;;;;;;;6.67;3.50;;;;;;;-0.24;94.07;101087.98;1829878;78;25432;-42
2023/02/04 08:00:16;;;;;;;6.17;3.20;;;;;;;0.28;93.67;101089.05;1829977;77;25538;-42
2023/02/04 08:02:42;;;;;;;4.05;2.92;;;;;;;0.68;93.17;101088.59;1829809;78;25580;-44
2023/02/04 08:05:10;;;;;;;8.38;3.50;;;;;;;1.12;91.64;101094.58;1824236;77;25540;-44
2023/02/04 08:07:37;;;;;;;6.08;2.67;;;;;;;1.51;91.05;101103.58;1823769;78;27521;-43
2023/02/04 08:10:08;;;;;;;9.70;3.47;;;;;;;1.87;89.65;101103.91;1823333;78;27357;-44
2023/02/04 08:12:36;;;;;;;6.97;4.40;;;;;;;2.33;89.81;101101.47;1823801;78;25620;-45
2023/02/04 08:15:06;;;;;;;8.15;3.62;;;;;;;2.65;88.01;101105.09;1823615;78;27682;-44
2023/02/04 08:17:34;;;;;;;6.67;3.25;;;;;;;2.98;88.01;101116.45;1823949;78;25581;-43
2023/02/04 08:20:00;;;;;;;7.33;3.95;;;;;;;3.14;85.10;101112.99;1823772;78;27500;-43
2023/02/04 08:22:27;;;;;;;8.13;4.37;;;;;;;3.28;83.28;101125.54;1823614;78;25604;-45
2023/02/04 08:24:53;;;;;;;6.37;3.35;;;;;;;3.46;82.01;101124.53;1823788;78;25462;-45
2023/02/04 08:27:21;;;;;;;5.05;2.65;;;;;;;3.65;82.22;101129.14;1823723;78;25530;-42
2023/02/04 08:29:48;;;;;;;5.03;2.98;;;;;;;4.05;82.47;101128.69;1823754;78;25369;-43
2023/02/04 08:32:15;;;;;;;4.70;2.77;;;;;;;4.44;82.49;101136.75;1823760;78;28046;-46
2023/02/04 08:34:42;;;;;;;8.75;4.55;;;;;;;4.97;81.27;101139.83;1823783;78;25847;-44
2023/02/04 08:37:10;;;;;;;5.03;2.83;;;;;;;5.32;81.21;101136.73;1823731;78;25383;-44
2023/02/04 08:39:37;;;;;;;6.17;2.70;;;;;;;5.82;79.08;101144.69;1823680;78;27848;-45
2023/02/04 08:42:04;;;;;;;5.92;2.40;;;;;;;6.06;77.27;101150.03;1823923;78;25614;-44
2023/02/04 08:44:30;;;;;;;8.58;7.45;;;;;;;6.28;77.41;101161.18;1823771;78;27510;-43
2023/02/04 08:46:56;;;;;;;42.93;40.10;;;;;;;6.61;76.37;101160.59;1823668;78;25596;-46
2023/02/04 08:49:23;;;;;;;78.35;72.95;;;;;;;6.79;74.77;101168.18;1823807;78;25525;-45
2023/02/04 08:51:49;;;;;;;38.02;35.33;;;;;;;6.87;73.90;101175.75;1823742;78;27714;-43
2023/02/04 08:54:15;;;;;;;5.40;3.20;;;;;;;6.79;71.75;101161.45;1823808;78;25451;-45
2023/02/04 08:56:41;;;;;;;5.75;3.40;;;;;;;6.58;71.29;101173.20;1823698;78;29677;-45
2023/02/04 08:59:07;;;;;;;7.70;4.55;;;;;;;6.63;71.47;101175.37;1823646;78;25372;-46
2023/02/04 09:01:34;;;;;;;5.28;3.40;;;;;;;6.71;71.05;101175.42;1823706;78;25523;-45
2023/02/04 09:04:00;;;;;;;7.67;3.65;;;;;;;6.70;69.43;101175.94;1825445;78;25541;-45
2023/02/04 09:06:27;;;;;;;4.53;2.10;;;;;;;6.85;70.33;101174.41;1829865;78;25523;-45
2023/02/04 09:08:53;;;;;;;3.75;2.37;;;;;;;7.38;71.27;101181.05;1829858;78;27418;-44
2023/02/04 09:11:19;;;;;;;5.10;2.52;;;;;;;7.82;68.37;101184.08;1829705;78;27366;-44
2023/02/04 09:13:46;;;;;;;4.45;2.70;;;;;;;7.80;66.91;101192.17;1829852;78;25524;-44
2023/02/04 09:16:13;;;;;;;3.87;2.92;;;;;;;7.94;66.81;101175.73;1829767;78;25477;-44
2023/02/04 09:18:39;;;;;;;5.28;4.37;;;;;;;8.31;66.91;101175.98;1829811;78;25525;-45
2023/02/04 09:21:05;;;;;;;8.83;8.18;;;;;;;8.53;65.67;101176.22;1829878;78;27449;-46
2023/02/04 09:23:31;;;;;;;12.45;11.48;;;;;;;8.73;65.41;101169.42;1829704;78;25527;-46
2023/02/04 09:25:58;;;;;;;4.22;2.15;;;;;;;9.22;65.54;101181.92;1829811;78;25526;-45
2023/02/04 09:28:24;;;;;;;75.97;71.07;;;;;;;9.34;64.06;101187.79;1829741;77;25590;-44
2023/02/04 09:30:50;;;;;;;74.75;70.05;;;;;;;9.50;63.68;101189.33;1829808;77;25584;-48
2023/02/04 09:33:17;;;;;;;75.08;70.17;;;;;;;9.67;62.50;101179.49;1829787;77;27595;-45
2023/02/04 09:35:43;;;;;;;77.03;71.97;;;;;;;9.64;61.07;101180.05;1829730;77;26339;-46
2023/02/04 09:38:10;;;;;;;71.95;67.40;;;;;;;9.94;60.25;101193.05;1829805;77;25436;-45
2023/02/04 09:40:41;;;;;;;75.08;70.22;;;;;;;9.83;58.46;101186.93;1829725;78;25500;-45
2023/02/04 09:43:13;;;;;;;74.70;70.10;;;;;;;9.86;57.86;101187.73;1828722;77;25361;-44
2023/02/04 09:45:40;;;;;;;74.45;69.70;;;;;;;10.01;58.72;101196.27;1828625;77;27510;-44
2023/02/04 09:48:08;;;;;;;74.85;69.70;;;;;;;10.39;58.42;101199.19;1829706;77;25607;-45
2023/02/04 09:50:34;;;;;;;72.60;68.07;;;;;;;10.76;58.16;101203.15;1829795;77;25593;-45
2023/02/04 09:53:04;;;;;;;75.28;70.47;;;;;;;10.93;56.22;101206.75;1841204;77;25609;-46
2023/02/04 09:55:35;;;;;;;73.67;68.85;;;;;;;11.30;55.12;101212.51;1829822;78;25580;-47
2023/02/04 09:58:04;;;;;;;71.02;66.67;;;;;;;11.58;55.88;101213.49;1841297;77;27996;-46
2023/02/04 10:00:30;;;;;;;75.60;70.62;;;;;;;12.15;54.38;101221.58;1829953;77;25570;-46
2023/02/04 10:03:00;;;;;;;71.00;66.50;;;;;;;11.95;51.80;101214.57;1829754;78;25533;-46
2023/02/04 10:05:36;;;;;;;;;;;;;;;11.99;51.33;101224.30;1832391;78;26082;-48
2023/02/04 10:08:03;;;;;;;73.85;69.35;;;;;;;12.30;52.25;101231.38;1829818;77;25523;-46
2023/02/04 10:10:30;;;;;;;73.50;68.92;;;;;;;12.74;52.32;101231.40;1829928;77;27556;-47
2023/02/04 10:13:00;;;;;;;74.82;70.08;;;;;;;12.58;49.43;101239.03;1829701;78;25434;-47
2023/02/04 10:15:27;;;;;;;72.55;67.97;;;;;;;12.17;49.03;101230.22;1829762;78;25363;-46
2023/02/04 10:18:01;;;;;;;72.20;67.80;;;;;;;11.97;49.51;101238.15;1829768;77;25999;-47
2023/02/04 10:20:27;;;;;;;72.90;68.35;;;;;;;12.16;49.44;101240.83;1829791;77;25358;-50
2023/02/04 10:22:55;;;;;;;77.05;72.42;;;;;;;11.63;47.95;101239.69;1829866;77;28176;-47
2023/02/04 10:43:29;;;;;;;83.90;78.05;;;;;;;4.65;52.15;101273.98;1734133;78;26651;-47
2023/02/04 10:46:00;;;;;;;82.47;76.90;;;;;;;4.06;52.26;101284.27;1700848;83;25679;-47
2023/02/04 10:48:29;;;;;;;82.12;76.42;;;;;;;3.51;53.27;101277.11;1729844;83;27504;-46
2023/02/04 10:50:57;;;;;;;78.12;72.85;;;;;;;3.03;54.34;101277.42;1729989;83;25771;-46
2023/02/04 10:56:21;;;;;;;32.28;29.75;;;;;;;2.26;55.66;101280.46;1729975;83;25502;-46
2023/02/04 10:58:48;;;;;;;24.47;22.55;;;;;;;1.89;56.70;101277.11;1730061;83;25639;-45
2023/02/04 11:01:16;;;;;;;5.47;2.67;;;;;;;1.66;57.71;101287.45;1729991;83;27569;-46
2023/02/04 11:03:43;;;;;;;5.30;2.70;;;;;;;1.48;58.72;101278.98;1729905;83;25821;-45
2023/02/04 11:06:20;;;;;;;4.37;2.98;;;;;;;1.33;58.70;101285.70;1730001;83;25647;-42
2023/02/04 11:08:47;;;;;;;6.62;3.22;;;;;;;1.16;59.32;101286.81;1700912;83;26383;-44
2023/02/04 11:11:22;;;;;;;45.15;42.08;;;;;;;0.99;60.01;101287.91;1730027;83;25636;-45
2023/02/04 11:13:54;;;;;;;84.90;78.83;;;;;;;0.80;60.64;101291.91;1729962;83;27483;-44
2023/02/04 11:16:31;;;;;;;81.95;76.22;;;;;;;0.66;61.00;101290.38;1729942;83;25429;-44
2023/02/04 11:19:03;;;;;;;80.95;75.37;;;;;;;0.57;61.76;101299.69;1730018;83;25414;-43
2023/02/04 11:21:38;;;;;;;75.00;69.77;;;;;;;0.40;61.58;101293.56;1728119;83;25775;-45
2023/02/04 11:24:16;;;;;;;74.95;69.62;;;;;;;0.27;62.19;101285.67;1730058;83;25215;-45
2023/02/04 11:26:46;;;;;;;84.28;78.22;;;;;;;0.21;62.98;101298.00;1730086;83;27544;-47
2023/02/04 11:29:36;;;;;;;81.70;75.83;;;;;;;0.15;63.24;101290.38;1729938;83;25824;-44
2023/02/04 11:32:36;;;;;;;82.70;76.67;;;;;;;0.13;63.46;101296.92;1730010;83;25417;-45
2023/02/04 11:35:11;;;;;;;81.87;76.00;;;;;;;0.23;65.14;101290.61;1729916;83;25610;-46
2023/02/04 11:37:42;;;;;;;81.92;76.28;;;;;;;0.53;64.56;101297.45;1726469;83;25414;-44
2023/02/04 11:40:31;;;;;;;80.12;74.62;;;;;;;0.66;64.73;101305.03;1729968;83;27479;-45
2023/02/04 11:43:14;;;;;;;82.47;76.67;;;;;;;0.77;64.59;101303.48;1731496;82;25429;-45
2023/02/04 11:45:41;;;;;;;51.13;47.27;;;;;;;0.89;64.80;101299.09;1733212;82;25594;-45